createdAt,value
2023-10-18T00:00:05.799Z,7.93
2023-10-18T00:01:07.720Z,7.90
2023-10-18T00:02:09.523Z,7.89
2023-10-18T00:03:11.476Z,7.88
2023-10-18T00:04:13.437Z,7.87
2023-10-18T00:05:15.256Z,7.88
2023-10-18T00:06:17.237Z,7.88
2023-10-18T00:07:19.224Z,7.89
2023-10-18T00:08:21.056Z,7.89
2023-10-18T00:09:22.895Z,7.85
2023-10-18T00:10:24.759Z,7.83
2023-10-18T00:11:26.648Z,7.73
2023-10-18T00:12:28.490Z,7.73
2023-10-18T00:13:30.260Z,7.75
2023-10-18T00:14:32.099Z,7.75
2023-10-18T00:15:33.984Z,7.75
2023-10-18T00:16:36.010Z,7.73
2023-10-18T00:17:37.870Z,7.73
2023-10-18T00:18:39.891Z,7.73
2023-10-18T00:19:41.928Z,7.71
2023-10-18T00:20:43.818Z,7.68
2023-10-18T00:21:45.962Z,7.65
2023-10-18T00:22:47.797Z,7.61
2023-10-18T00:23:49.659Z,7.59
2023-10-18T00:24:51.634Z,7.57
2023-10-18T00:25:53.463Z,7.54
2023-10-18T00:26:55.374Z,7.52
2023-10-18T00:27:57.249Z,7.50
2023-10-18T00:28:59.067Z,7.48
2023-10-18T00:30:00.918Z,7.45
2023-10-18T00:31:02.839Z,7.44
2023-10-18T00:32:04.835Z,7.43
2023-10-18T00:33:06.602Z,7.40
2023-10-18T00:34:08.491Z,7.39
2023-10-18T00:35:10.318Z,7.38
2023-10-18T00:36:12.456Z,7.36
2023-10-18T00:37:14.386Z,7.36
2023-10-18T00:38:16.222Z,7.35
2023-10-18T00:39:18.087Z,7.33
2023-10-18T00:40:19.972Z,7.34
2023-10-18T00:41:21.855Z,7.34
2023-10-18T00:42:23.740Z,7.33
2023-10-18T00:43:25.754Z,7.35
2023-10-18T00:44:27.784Z,7.33
2023-10-18T00:45:29.641Z,7.29
2023-10-18T00:46:31.516Z,7.26
2023-10-18T00:47:33.378Z,7.23
2023-10-18T00:48:35.565Z,7.20
2023-10-18T00:49:37.490Z,7.19
2023-10-18T00:50:39.367Z,7.17
2023-10-18T00:51:41.241Z,7.17
2023-10-18T00:52:43.127Z,7.19
2023-10-18T00:55:06.214Z,7.23
2023-10-18T01:01:31.212Z,7.15
2023-10-18T01:02:33.084Z,7.12
2023-10-18T01:03:35.032Z,7.11
2023-10-18T01:04:36.964Z,7.12
2023-10-18T01:05:38.709Z,7.11
2023-10-18T01:06:40.705Z,7.13
2023-10-18T01:07:42.723Z,7.13
2023-10-18T01:08:44.602Z,7.14
2023-10-18T01:09:46.464Z,7.15
2023-10-18T01:10:48.393Z,7.14
2023-10-18T01:11:50.374Z,7.14
2023-10-18T01:12:52.266Z,7.14
2023-10-18T01:13:54.106Z,7.15
2023-10-18T01:14:55.944Z,7.15
2023-10-18T01:15:57.812Z,7.16
2023-10-18T01:16:59.754Z,7.15
2023-10-18T01:18:01.672Z,7.14
2023-10-18T01:19:03.596Z,7.12
2023-10-18T01:20:05.544Z,7.14
2023-10-18T01:21:07.385Z,7.14
2023-10-18T01:22:09.300Z,7.14
2023-10-18T01:23:11.227Z,7.13
2023-10-18T01:24:13.071Z,7.14
2023-10-18T01:25:14.878Z,7.13
2023-10-18T01:26:16.756Z,7.10
2023-10-18T01:27:18.665Z,7.05
2023-10-18T01:28:20.518Z,7.01
2023-10-18T01:29:24.736Z,7.00
2023-10-18T01:30:25.939Z,7.00
2023-10-18T01:31:27.848Z,7.01
2023-10-18T01:32:29.807Z,7.01
2023-10-18T01:33:31.514Z,7.03
2023-10-18T01:34:33.362Z,7.04
2023-10-18T01:35:35.215Z,7.04
2023-10-18T01:36:37.204Z,7.05
2023-10-18T01:37:39.184Z,7.04
2023-10-18T01:38:41.017Z,7.05
2023-10-18T01:39:42.909Z,7.05
2023-10-18T01:40:44.724Z,7.06
2023-10-18T01:41:46.558Z,7.06
2023-10-18T01:42:48.461Z,7.05
2023-10-18T01:43:50.319Z,7.04
2023-10-18T01:44:52.361Z,7.05
2023-10-18T01:45:54.240Z,7.04
2023-10-18T01:46:56.119Z,7.05
2023-10-18T01:47:58.085Z,7.05
2023-10-18T01:48:59.955Z,7.05
2023-10-18T01:50:01.881Z,7.04
2023-10-18T01:51:03.804Z,7.04
2023-10-18T01:52:05.800Z,7.04
2023-10-18T01:53:07.653Z,7.04
2023-10-18T01:54:09.394Z,7.05
2023-10-18T01:55:11.277Z,7.03
2023-10-18T01:56:13.913Z,7.02
2023-10-18T01:57:15.751Z,7.02
2023-10-18T01:58:17.670Z,7.03
2023-10-18T01:59:19.518Z,7.03
2023-10-18T02:00:21.358Z,7.03
2023-10-18T02:01:23.291Z,7.03
2023-10-18T02:02:25.194Z,7.03
2023-10-18T02:03:27.110Z,7.01
2023-10-18T02:05:32.570Z,6.94
2023-10-18T02:06:34.413Z,6.90
2023-10-18T02:07:36.273Z,6.88
2023-10-18T02:08:38.195Z,6.86
2023-10-18T02:09:40.036Z,6.87
2023-10-18T02:10:41.868Z,6.86
2023-10-18T02:11:44.024Z,6.87
2023-10-18T02:12:45.809Z,6.88
2023-10-18T02:13:47.664Z,6.87
2023-10-18T02:14:49.527Z,6.86
2023-10-18T02:15:51.400Z,6.84
2023-10-18T02:16:53.282Z,6.81
2023-10-18T02:17:55.191Z,6.79
2023-10-18T02:18:57.100Z,6.79
2023-10-18T02:19:58.920Z,6.79
2023-10-18T02:21:00.768Z,6.79
2023-10-18T02:22:02.657Z,6.80
2023-10-18T02:23:04.568Z,6.81
2023-10-18T02:24:06.437Z,6.83
2023-10-18T02:25:08.390Z,6.85
2023-10-18T02:26:10.555Z,6.87
2023-10-18T02:27:12.416Z,6.89
2023-10-18T02:28:14.170Z,6.91
2023-10-18T02:29:16.028Z,6.93
2023-10-18T02:30:17.997Z,6.94
2023-10-18T02:31:19.926Z,6.95
2023-10-18T02:32:21.782Z,6.95
2023-10-18T02:33:23.636Z,6.97
2023-10-18T02:34:30.024Z,6.97
2023-10-18T02:35:29.288Z,6.99
2023-10-18T02:36:31.130Z,6.98
2023-10-18T02:37:32.883Z,6.99
2023-10-18T02:38:34.620Z,6.99
2023-10-18T02:39:37.607Z,7.02
2023-10-18T02:40:40.204Z,7.02
2023-10-18T02:41:42.022Z,7.03
2023-10-18T02:42:43.815Z,7.04
2023-10-18T02:43:45.522Z,7.04
2023-10-18T02:44:47.437Z,7.05
2023-10-18T02:45:49.310Z,7.06
2023-10-18T02:46:51.310Z,7.07
2023-10-18T02:47:53.115Z,7.07
2023-10-18T02:48:55.040Z,7.07
2023-10-18T02:49:56.907Z,7.07
2023-10-18T02:50:58.923Z,7.08
2023-10-18T02:52:00.809Z,7.07
2023-10-18T02:53:02.664Z,7.04
2023-10-18T02:54:04.520Z,7.03
2023-10-18T02:55:06.446Z,7.01
2023-10-18T02:56:08.228Z,7.02
2023-10-18T02:57:10.054Z,7.01
2023-10-18T02:58:11.960Z,7.02
2023-10-18T02:59:15.667Z,7.03
2023-10-18T03:00:17.541Z,7.03
2023-10-18T03:01:19.412Z,7.01
2023-10-18T03:02:21.302Z,6.98
2023-10-18T03:03:23.110Z,6.97
2023-10-18T03:04:25.107Z,6.96
2023-10-18T03:05:26.966Z,6.97
2023-10-18T03:06:28.815Z,6.98
2023-10-18T03:07:30.669Z,6.99
2023-10-18T03:08:32.596Z,7.00
2023-10-18T03:09:34.448Z,7.01
2023-10-18T03:10:36.549Z,7.03
2023-10-18T03:11:38.578Z,7.04
2023-10-18T03:12:40.673Z,7.04
2023-10-18T03:13:42.689Z,7.05
2023-10-18T03:14:44.534Z,7.07
2023-10-18T03:15:52.154Z,7.06
2023-10-18T03:16:50.147Z,7.07
2023-10-18T03:17:52.070Z,7.07
2023-10-18T03:18:53.899Z,7.08
2023-10-18T03:19:55.720Z,7.09
2023-10-18T03:20:57.605Z,7.06
2023-10-18T03:21:59.500Z,7.02
2023-10-18T03:23:01.219Z,7.01
2023-10-18T03:24:03.074Z,6.92
2023-10-18T03:25:04.963Z,6.92
2023-10-18T03:26:07.516Z,6.88
2023-10-18T03:27:09.385Z,6.87
2023-10-18T03:28:11.231Z,6.86
2023-10-18T03:29:13.045Z,6.83
2023-10-18T03:30:15.500Z,6.84
2023-10-18T03:31:17.508Z,6.84
2023-10-18T03:32:19.402Z,6.85
2023-10-18T03:33:21.261Z,6.84
2023-10-18T03:34:23.113Z,6.84
2023-10-18T03:35:25.040Z,6.84
2023-10-18T03:39:19.843Z,6.78
2023-10-18T03:40:21.810Z,6.76
2023-10-18T03:41:23.744Z,6.75
2023-10-18T03:42:25.802Z,6.76
2023-10-18T03:43:28.331Z,6.79
2023-10-18T03:44:30.318Z,6.82
2023-10-18T03:45:32.271Z,6.86
2023-10-18T03:46:34.463Z,6.91
2023-10-18T03:47:36.522Z,6.97
2023-10-18T03:48:38.537Z,7.01
2023-10-18T03:49:40.389Z,7.06
2023-10-18T03:50:42.490Z,7.09
2023-10-18T03:51:44.695Z,7.14
2023-10-18T03:52:46.788Z,7.17
2023-10-18T03:53:48.909Z,7.21
2023-10-18T03:54:50.878Z,7.24
2023-10-18T03:55:52.921Z,7.26
2023-10-18T03:56:54.768Z,7.28
2023-10-18T03:57:56.727Z,7.30
2023-10-18T03:58:58.777Z,7.32
2023-10-18T04:00:00.834Z,7.32
2023-10-18T04:01:02.804Z,7.36
2023-10-18T04:02:04.966Z,7.37
2023-10-18T04:03:07.872Z,7.37
2023-10-18T04:04:10.705Z,7.39
2023-10-18T04:05:12.574Z,7.41
2023-10-18T04:06:14.431Z,7.41
2023-10-18T04:07:16.335Z,7.42
2023-10-18T04:08:18.264Z,7.43
2023-10-18T04:09:20.121Z,7.42
2023-10-18T04:10:22.032Z,7.42
2023-10-18T04:11:23.916Z,7.40
2023-10-18T04:12:25.761Z,7.39
2023-10-18T04:13:27.669Z,7.36
2023-10-18T04:14:29.513Z,7.36
2023-10-18T04:15:31.361Z,7.35
2023-10-18T04:16:34.322Z,7.37
2023-10-18T04:17:36.252Z,7.38
2023-10-18T04:18:38.147Z,7.40
2023-10-18T04:19:40.053Z,7.42
2023-10-18T04:20:41.984Z,7.43
2023-10-18T04:21:43.748Z,7.44
2023-10-18T04:22:45.563Z,7.45
2023-10-18T04:23:47.827Z,7.45
2023-10-18T04:24:49.931Z,7.48
2023-10-18T04:25:51.785Z,7.47
2023-10-18T04:26:53.621Z,7.48
2023-10-18T04:27:55.504Z,7.48
2023-10-18T04:28:57.464Z,7.40
2023-10-18T04:29:59.560Z,7.40
2023-10-18T04:31:01.574Z,7.38
2023-10-18T04:32:03.547Z,7.34
2023-10-18T04:33:05.510Z,7.30
2023-10-18T04:34:07.481Z,7.27
2023-10-18T04:35:09.369Z,7.23
2023-10-18T04:36:11.435Z,7.22
2023-10-18T04:37:13.499Z,7.21
2023-10-18T04:38:15.532Z,7.23
2023-10-18T04:39:17.472Z,7.22
2023-10-18T04:40:19.879Z,7.23
2023-10-18T04:41:21.892Z,7.26
2023-10-18T04:42:23.836Z,7.26
2023-10-18T04:43:25.854Z,7.31
2023-10-18T04:44:27.848Z,7.32
2023-10-18T04:45:29.797Z,7.36
2023-10-18T04:46:32.122Z,7.38
2023-10-18T04:47:34.303Z,7.40
2023-10-18T04:48:36.272Z,7.42
2023-10-18T04:49:38.496Z,7.43
2023-10-18T04:50:40.794Z,7.45
2023-10-18T04:51:42.938Z,7.48
2023-10-18T04:52:45.208Z,7.49
2023-10-18T04:53:47.266Z,7.51
2023-10-18T04:54:49.241Z,7.53
2023-10-18T04:55:51.181Z,7.54
2023-10-18T04:56:53.240Z,7.56
2023-10-18T04:57:55.326Z,7.57
2023-10-18T04:58:57.330Z,7.60
2023-10-18T04:59:59.283Z,7.61
2023-10-18T05:01:01.559Z,7.62
2023-10-18T05:02:03.629Z,7.63
2023-10-18T05:03:05.504Z,7.63
2023-10-18T05:04:07.543Z,7.65
2023-10-18T05:05:09.570Z,7.66
2023-10-18T05:06:11.614Z,7.67
2023-10-18T05:07:13.607Z,7.67
2023-10-18T05:08:15.631Z,7.67
2023-10-18T05:09:17.575Z,7.68
2023-10-18T05:10:20.318Z,7.69
2023-10-18T05:11:23.230Z,7.69
2023-10-18T05:12:25.177Z,7.70
2023-10-18T05:13:27.239Z,7.69
2023-10-18T05:14:31.369Z,7.65
2023-10-18T05:15:36.082Z,7.63
2023-10-18T05:16:38.620Z,7.64
2023-10-18T05:17:40.650Z,7.64
2023-10-18T05:18:42.639Z,7.65
2023-10-18T05:19:44.886Z,7.63
2023-10-18T05:20:47.044Z,7.65
2023-10-18T05:21:49.031Z,7.65
2023-10-18T05:22:50.944Z,7.66
2023-10-18T05:23:54.235Z,7.67
2023-10-18T05:24:56.185Z,7.68
2023-10-18T05:25:58.249Z,7.69
2023-10-18T05:27:00.299Z,7.70
2023-10-18T05:28:02.536Z,7.69
2023-10-18T05:29:04.620Z,7.70
2023-10-18T05:30:07.500Z,7.70
2023-10-18T05:31:09.560Z,7.69
2023-10-18T05:32:11.570Z,7.63
2023-10-18T05:33:13.585Z,7.60
2023-10-18T05:34:15.601Z,7.56
2023-10-18T05:35:17.567Z,7.53
2023-10-18T05:36:19.713Z,7.51
2023-10-18T05:37:21.678Z,7.52
2023-10-18T05:38:23.722Z,7.53
2023-10-18T05:39:26.188Z,7.54
2023-10-18T05:40:28.374Z,7.57
2023-10-18T05:41:30.437Z,7.60
2023-10-18T05:42:32.356Z,7.62
2023-10-18T05:43:34.347Z,7.66
2023-10-18T05:44:37.597Z,7.66
2023-10-18T05:45:39.842Z,7.66
2023-10-18T05:46:41.882Z,7.63
2023-10-18T05:47:43.874Z,7.62
2023-10-18T05:48:45.916Z,7.60
2023-10-18T05:49:47.862Z,7.56
2023-10-18T05:50:50.227Z,7.54
2023-10-18T05:51:52.227Z,7.55
2023-10-18T05:52:54.227Z,7.55
2023-10-18T05:53:56.186Z,7.55
2023-10-18T05:54:58.187Z,7.57
2023-10-18T05:56:00.219Z,7.62
2023-10-18T05:57:02.143Z,7.67
2023-10-18T05:58:04.209Z,7.72
2023-10-18T05:59:06.254Z,7.78
2023-10-18T06:00:08.610Z,7.83
2023-10-18T06:01:10.640Z,7.85
2023-10-18T06:02:12.751Z,7.89
2023-10-18T06:03:14.850Z,7.91
2023-10-18T06:04:16.869Z,7.94
2023-10-18T06:05:18.895Z,7.94
2023-10-18T06:06:20.789Z,7.95
2023-10-18T06:07:23.478Z,7.97
2023-10-18T06:08:26.699Z,7.98
2023-10-18T06:09:28.828Z,8.02
2023-10-18T06:10:31.170Z,8.04
2023-10-18T06:11:32.997Z,8.08
2023-10-18T06:12:34.858Z,8.09
2023-10-18T06:13:37.756Z,8.11
2023-10-18T06:14:39.608Z,8.09
2023-10-18T06:15:41.470Z,8.12
2023-10-18T06:16:43.358Z,8.14
2023-10-18T06:17:45.352Z,8.18
2023-10-18T06:18:47.288Z,8.19
2023-10-18T06:19:49.120Z,8.19
2023-10-18T06:20:50.976Z,8.20
2023-10-18T06:21:52.865Z,8.22
2023-10-18T06:22:55.874Z,8.27
2023-10-18T06:23:57.740Z,8.29
2023-10-18T06:24:59.616Z,8.29
2023-10-18T06:26:01.392Z,8.26
2023-10-18T06:27:03.263Z,8.23
2023-10-18T06:28:05.171Z,8.20
2023-10-18T06:29:07.011Z,8.18
2023-10-18T06:30:09.088Z,8.19
2023-10-18T06:31:11.074Z,8.20
2023-10-18T06:32:13.037Z,8.21
2023-10-18T06:33:14.924Z,8.21
2023-10-18T06:34:19.062Z,8.21
2023-10-18T06:35:20.973Z,8.20
2023-10-18T06:36:22.815Z,8.20
2023-10-18T06:37:24.906Z,8.19
2023-10-18T06:38:26.869Z,8.21
2023-10-18T06:39:28.956Z,8.24
2023-10-18T06:40:31.099Z,8.30
2023-10-18T06:41:32.941Z,8.35
2023-10-18T06:42:37.019Z,8.39
2023-10-18T06:43:38.917Z,8.40
2023-10-18T06:44:40.770Z,8.40
2023-10-18T06:45:43.928Z,8.41
2023-10-18T06:46:45.910Z,8.46
2023-10-18T06:47:47.880Z,8.50
2023-10-18T06:48:59.895Z,8.57
2023-10-18T06:49:58.378Z,8.62
2023-10-18T06:50:57.812Z,8.67
2023-10-18T06:52:00.045Z,8.67
2023-10-18T06:53:02.178Z,8.67
2023-10-18T06:54:04.103Z,8.68
2023-10-18T06:55:05.879Z,8.70
2023-10-18T06:56:07.846Z,8.75
2023-10-18T06:57:09.676Z,8.79
2023-10-18T06:58:11.456Z,8.80
2023-10-18T06:59:13.415Z,8.81
2023-10-18T07:00:15.280Z,8.82
2023-10-18T07:01:18.323Z,8.84
2023-10-18T07:02:20.290Z,8.87
2023-10-18T07:03:22.146Z,8.93
2023-10-18T07:04:24.167Z,8.97
2023-10-18T07:05:26.043Z,9.01
2023-10-18T07:06:27.947Z,9.02
2023-10-18T07:07:30.967Z,9.03
2023-10-18T07:08:33.552Z,9.04
2023-10-18T07:09:35.510Z,9.06
2023-10-18T07:10:37.420Z,9.09
2023-10-18T07:11:49.911Z,9.12
2023-10-18T07:12:43.021Z,9.15
2023-10-18T07:13:44.871Z,9.16
2023-10-18T07:14:46.752Z,9.16
2023-10-18T07:15:51.265Z,9.17
2023-10-18T07:16:53.284Z,9.23
2023-10-18T07:17:55.265Z,9.31
2023-10-18T07:18:57.182Z,9.37
2023-10-18T07:19:59.053Z,9.44
2023-10-18T07:21:01.006Z,9.49
2023-10-18T07:22:02.879Z,9.52
2023-10-18T07:23:04.713Z,9.55
2023-10-18T07:24:06.589Z,9.59
2023-10-18T07:25:08.414Z,9.66
2023-10-18T07:26:10.549Z,9.72
2023-10-18T07:27:12.375Z,9.79
2023-10-18T07:28:14.279Z,9.87
2023-10-18T07:29:16.185Z,9.96
2023-10-18T07:30:18.616Z,9.96
2023-10-18T07:31:21.645Z,10.07
2023-10-18T07:32:23.595Z,10.13
2023-10-18T07:33:25.463Z,10.20
2023-10-18T07:34:28.537Z,10.33
2023-10-18T07:35:30.692Z,10.33
2023-10-18T07:36:32.546Z,10.38
2023-10-18T07:37:34.395Z,10.42
2023-10-18T07:38:36.250Z,10.47
2023-10-18T07:39:38.176Z,10.48
2023-10-18T07:40:40.636Z,10.51
2023-10-18T07:42:52.002Z,10.51
2023-10-18T07:43:53.896Z,10.54
2023-10-18T07:44:55.734Z,10.58
2023-10-18T07:45:57.547Z,10.63
2023-10-18T07:46:59.386Z,10.69
2023-10-18T07:48:01.283Z,10.72
2023-10-18T07:49:03.154Z,10.76
2023-10-18T07:50:05.244Z,10.80
2023-10-18T07:51:07.262Z,10.85
2023-10-18T07:52:09.104Z,10.89
2023-10-18T07:53:10.929Z,10.91
2023-10-18T07:55:28.876Z,10.94
2023-10-18T07:56:30.831Z,10.97
2023-10-18T07:57:32.676Z,10.99
2023-10-18T07:58:34.590Z,11.03
2023-10-18T07:59:36.574Z,11.06
2023-10-18T08:00:38.440Z,11.12
2023-10-18T08:01:40.413Z,11.17
2023-10-18T08:02:42.351Z,11.23
2023-10-18T08:03:44.373Z,11.29
2023-10-18T08:04:46.538Z,11.34
2023-10-18T08:05:48.659Z,11.40
2023-10-18T08:06:50.992Z,11.44
2023-10-18T08:07:52.960Z,11.49
2023-10-18T08:08:55.101Z,11.52
2023-10-18T08:09:57.050Z,11.63
2023-10-18T08:10:59.115Z,11.63
2023-10-18T08:12:01.196Z,11.67
2023-10-18T08:13:02.966Z,11.68
2023-10-18T08:14:04.796Z,11.68
2023-10-18T08:15:06.709Z,11.68
2023-10-18T08:16:09.198Z,11.69
2023-10-18T08:17:11.151Z,11.72
2023-10-18T08:18:12.973Z,11.76
2023-10-18T08:19:14.836Z,11.79
2023-10-18T08:20:16.736Z,11.85
2023-10-18T08:21:18.549Z,11.90
2023-10-18T08:22:23.164Z,12.00
2023-10-18T08:23:24.146Z,12.00
2023-10-18T08:24:25.986Z,12.04
2023-10-18T08:25:27.899Z,12.09
2023-10-18T08:26:29.982Z,12.13
2023-10-18T08:27:31.840Z,12.18
2023-10-18T08:28:33.691Z,12.24
2023-10-18T08:29:35.555Z,12.25
2023-10-18T08:30:37.457Z,12.27
2023-10-18T08:31:39.434Z,12.29
2023-10-18T08:32:41.394Z,12.32
2023-10-18T08:33:43.215Z,12.36
2023-10-18T08:34:45.075Z,12.39
2023-10-18T08:35:46.927Z,12.43
2023-10-18T08:36:48.791Z,12.46
2023-10-18T08:37:50.655Z,12.50
2023-10-18T08:38:52.518Z,12.55
2023-10-18T08:39:54.456Z,12.59
2023-10-18T08:40:56.360Z,12.64
2023-10-18T08:41:58.259Z,12.71
2023-10-18T08:43:00.176Z,12.75
2023-10-18T08:44:01.905Z,12.80
2023-10-18T08:45:04.172Z,12.84
2023-10-18T08:46:06.095Z,12.89
2023-10-18T08:47:07.996Z,12.93
2023-10-18T08:48:09.841Z,12.94
2023-10-18T08:49:11.910Z,12.97
2023-10-18T08:50:13.913Z,12.98
2023-10-18T08:51:15.774Z,13.00
2023-10-18T08:52:17.650Z,13.04
2023-10-18T08:53:19.496Z,13.06
2023-10-18T08:54:21.478Z,13.10
2023-10-18T08:55:23.249Z,13.12
2023-10-18T08:56:25.099Z,13.14
2023-10-18T08:57:26.966Z,13.16
2023-10-18T08:58:28.779Z,13.16
2023-10-18T08:59:30.584Z,13.19
2023-10-18T09:00:32.463Z,13.23
2023-10-18T09:01:34.390Z,13.25
2023-10-18T09:02:36.272Z,13.25
2023-10-18T09:03:38.146Z,13.28
2023-10-18T09:04:39.998Z,13.28
2023-10-18T09:05:41.817Z,13.29
2023-10-18T09:06:43.657Z,13.31
2023-10-18T09:07:45.507Z,13.33
2023-10-18T09:08:47.402Z,13.34
2023-10-18T09:09:49.263Z,13.36
2023-10-18T09:10:51.359Z,13.38
2023-10-18T09:11:53.284Z,13.42
2023-10-18T09:12:55.192Z,13.46
2023-10-18T09:13:57.159Z,13.51
2023-10-18T09:14:59.086Z,13.56
2023-10-18T09:16:02.534Z,13.60
2023-10-18T09:17:05.035Z,13.62
2023-10-18T09:18:07.042Z,13.68
2023-10-18T09:19:10.838Z,13.71
2023-10-18T09:20:12.643Z,13.71
2023-10-18T09:21:14.491Z,13.72
2023-10-18T09:22:16.391Z,13.71
2023-10-18T09:23:18.234Z,13.73
2023-10-18T09:24:20.023Z,13.75
2023-10-18T09:25:21.967Z,13.79
2023-10-18T09:26:23.868Z,13.83
2023-10-18T09:27:25.725Z,13.87
2023-10-18T09:28:27.632Z,13.90
2023-10-18T09:29:29.522Z,13.91
2023-10-18T09:30:31.392Z,13.90
2023-10-18T09:31:33.376Z,13.90
2023-10-18T09:32:35.413Z,13.89
2023-10-18T09:33:37.295Z,13.87
2023-10-18T09:34:39.284Z,13.85
2023-10-18T09:35:41.279Z,13.86
2023-10-18T09:36:45.285Z,13.85
2023-10-18T09:37:46.813Z,13.83
2023-10-18T09:38:48.680Z,13.84
2023-10-18T09:39:50.588Z,13.86
2023-10-18T09:40:52.411Z,13.88
2023-10-18T09:41:54.282Z,13.89
2023-10-18T09:42:56.151Z,13.89
2023-10-18T09:43:58.021Z,13.90
2023-10-18T09:44:59.930Z,13.92
2023-10-18T09:46:01.809Z,13.96
2023-10-18T09:47:03.628Z,13.99
2023-10-18T09:48:05.783Z,14.04
2023-10-18T09:49:07.655Z,14.07
2023-10-18T09:50:09.928Z,14.08
2023-10-18T09:51:11.762Z,14.09
2023-10-18T09:52:13.840Z,14.09
2023-10-18T09:53:15.904Z,14.09
2023-10-18T09:54:17.760Z,14.10
2023-10-18T09:55:19.689Z,14.09
2023-10-18T09:56:21.579Z,14.09
2023-10-18T09:57:23.540Z,14.07
2023-10-18T09:58:25.440Z,14.09
2023-10-18T09:59:28.663Z,14.04
2023-10-18T10:00:34.404Z,14.04
2023-10-18T10:01:36.395Z,14.04
2023-10-18T10:02:38.332Z,14.06
2023-10-18T10:03:40.247Z,14.08
2023-10-18T10:04:42.194Z,14.08
2023-10-18T10:05:44.125Z,14.08
2023-10-18T10:06:46.049Z,14.09
2023-10-18T10:07:48.748Z,14.10
2023-10-18T10:08:50.768Z,14.13
2023-10-18T10:11:03.006Z,14.18
2023-10-18T10:13:14.326Z,14.23
2023-10-18T10:14:16.178Z,14.26
2023-10-18T10:15:18.058Z,14.27
2023-10-18T10:16:20.039Z,14.26
2023-10-18T10:17:22.042Z,14.26
2023-10-18T10:18:23.878Z,14.24
2023-10-18T10:19:25.858Z,14.24
2023-10-18T10:20:27.691Z,14.24
2023-10-18T10:21:29.576Z,14.24
2023-10-18T10:22:32.361Z,14.26
2023-10-18T10:23:34.370Z,14.26
2023-10-18T10:24:36.235Z,14.25
2023-10-18T10:25:43.753Z,14.23
2023-10-18T10:26:42.026Z,14.23
2023-10-18T10:27:43.927Z,14.23
2023-10-18T10:28:45.781Z,14.23
2023-10-18T10:29:47.559Z,14.22
2023-10-18T10:30:49.525Z,14.21
2023-10-18T10:31:51.566Z,14.18
2023-10-18T10:32:53.959Z,14.15
2023-10-18T10:33:56.002Z,14.15
2023-10-18T10:34:57.755Z,14.15
2023-10-18T10:35:59.683Z,14.15
2023-10-18T10:37:01.635Z,14.16
2023-10-18T10:38:03.666Z,14.17
2023-10-18T10:39:05.546Z,14.19
2023-10-18T10:40:07.980Z,14.19
2023-10-18T10:41:09.881Z,14.19
2023-10-18T10:42:11.796Z,14.17
2023-10-18T10:43:13.729Z,14.17
2023-10-18T10:44:15.607Z,14.15
2023-10-18T10:45:17.504Z,14.15
2023-10-18T10:46:19.523Z,14.14
2023-10-18T10:47:21.594Z,14.13
2023-10-18T10:50:00.963Z,14.09
2023-10-18T10:51:02.860Z,14.07
2023-10-18T10:52:04.620Z,14.06
2023-10-18T10:53:06.505Z,14.06
2023-10-18T10:54:08.437Z,14.06
2023-10-18T10:55:10.570Z,14.05
2023-10-18T10:56:12.659Z,14.06
2023-10-18T10:57:14.555Z,14.11
2023-10-18T10:58:16.479Z,14.11
2023-10-18T11:00:50.628Z,14.12
2023-10-18T11:01:52.595Z,14.11
2023-10-18T11:02:54.592Z,14.10
2023-10-18T11:03:56.526Z,14.09
2023-10-18T11:04:58.414Z,14.09
2023-10-18T11:06:00.299Z,14.09
2023-10-18T11:07:02.671Z,14.09
2023-10-18T11:08:04.820Z,14.12
2023-10-18T11:09:06.708Z,14.13
2023-10-18T11:10:08.816Z,14.15
2023-10-18T11:11:10.813Z,14.15
2023-10-18T11:13:48.242Z,14.18
2023-10-18T11:14:50.116Z,14.16
2023-10-18T11:15:51.923Z,14.14
2023-10-18T11:16:53.832Z,14.15
2023-10-18T11:17:55.795Z,14.14
2023-10-18T11:18:57.613Z,14.13
2023-10-18T11:19:59.511Z,14.12
2023-10-18T11:21:01.397Z,14.10
2023-10-18T11:22:04.719Z,14.10
2023-10-18T11:23:06.964Z,14.10
2023-10-18T11:24:08.715Z,14.12
2023-10-18T11:25:10.636Z,14.14
2023-10-18T11:26:12.661Z,14.15
2023-10-18T11:27:14.818Z,14.15
2023-10-18T11:28:16.720Z,14.14
2023-10-18T11:29:18.540Z,14.13
2023-10-18T11:30:20.588Z,14.15
2023-10-18T11:31:22.559Z,14.15
2023-10-18T11:32:24.782Z,14.18
2023-10-18T11:33:26.860Z,14.19
2023-10-18T11:34:28.934Z,14.19
2023-10-18T11:35:31.043Z,14.18
2023-10-18T11:36:32.900Z,14.18
2023-10-18T11:37:34.913Z,14.18
2023-10-18T11:38:36.710Z,14.20
2023-10-18T11:39:38.567Z,14.22
2023-10-18T11:40:40.544Z,14.24
2023-10-18T11:41:42.389Z,14.24
2023-10-18T11:42:44.286Z,14.25
2023-10-18T11:43:46.047Z,14.24
2023-10-18T11:44:47.893Z,14.24
2023-10-18T11:45:49.809Z,14.23
2023-10-18T11:46:51.745Z,14.22
2023-10-18T11:47:53.575Z,14.21
2023-10-18T11:48:55.666Z,14.21
2023-10-18T11:49:57.533Z,14.22
2023-10-18T11:50:59.633Z,14.23
2023-10-18T11:52:01.546Z,14.23
2023-10-18T11:53:03.329Z,14.22
2023-10-18T11:54:05.170Z,14.18
2023-10-18T11:55:07.078Z,14.22
2023-10-18T11:56:09.542Z,14.24
2023-10-18T11:57:11.394Z,14.25
2023-10-18T11:58:13.371Z,14.25
2023-10-18T11:59:15.219Z,14.23
2023-10-18T12:00:17.069Z,14.23
2023-10-18T12:01:19.237Z,14.25
2023-10-18T12:02:21.526Z,14.24
2023-10-18T12:03:23.523Z,14.25
2023-10-18T12:04:25.902Z,14.26
2023-10-18T12:05:28.085Z,14.28
2023-10-18T12:06:30.146Z,14.28
2023-10-18T12:07:32.035Z,14.27
2023-10-18T12:08:33.836Z,14.28
2023-10-18T12:09:35.712Z,14.26
2023-10-18T12:10:37.594Z,14.27
2023-10-18T12:11:39.453Z,14.26
2023-10-18T12:12:41.296Z,14.25
2023-10-18T12:13:43.176Z,14.22
2023-10-18T12:14:45.021Z,14.20
2023-10-18T12:15:46.866Z,14.17
2023-10-18T12:16:48.929Z,14.16
2023-10-18T12:17:50.892Z,14.18
2023-10-18T12:18:52.863Z,14.18
2023-10-18T12:19:54.725Z,14.17
2023-10-18T12:20:56.601Z,14.17
2023-10-18T12:21:58.400Z,14.17
2023-10-18T12:23:00.243Z,14.17
2023-10-18T12:24:02.095Z,14.15
2023-10-18T12:25:03.974Z,14.17
2023-10-18T12:26:06.011Z,14.17
2023-10-18T12:27:07.893Z,14.17
2023-10-18T12:28:09.741Z,14.18
2023-10-18T12:29:11.905Z,14.19
2023-10-18T12:30:28.603Z,14.18
2023-10-18T12:31:18.353Z,14.18
2023-10-18T12:32:20.537Z,14.16
2023-10-18T12:33:22.642Z,14.14
2023-10-18T12:34:24.569Z,14.12
2023-10-18T12:35:26.437Z,14.12
2023-10-18T12:36:28.312Z,14.10
2023-10-18T12:37:30.220Z,14.09
2023-10-18T12:38:32.059Z,14.10
2023-10-18T12:39:33.907Z,14.11
2023-10-18T12:40:35.894Z,14.11
2023-10-18T12:41:37.758Z,14.09
2023-10-18T12:42:39.630Z,14.09
2023-10-18T12:43:41.483Z,14.10
2023-10-18T12:44:43.245Z,14.09
2023-10-18T12:45:45.145Z,14.10
2023-10-18T12:46:47.046Z,14.10
2023-10-18T12:47:49.003Z,14.12
2023-10-18T12:48:51.071Z,14.13
2023-10-18T12:49:53.081Z,14.13
2023-10-18T12:50:55.184Z,14.13
2023-10-18T12:51:58.300Z,14.13
2023-10-18T12:53:00.645Z,14.12
2023-10-18T12:54:02.511Z,14.12
2023-10-18T12:55:04.376Z,14.12
2023-10-18T12:56:06.241Z,14.12
2023-10-18T12:57:08.056Z,14.10
2023-10-18T12:58:09.972Z,14.08
2023-10-18T12:59:11.876Z,14.08
2023-10-18T13:00:14.599Z,14.09
2023-10-18T13:01:16.468Z,14.09
2023-10-18T13:02:18.376Z,14.10
2023-10-18T13:03:20.335Z,14.12
2023-10-18T13:04:22.192Z,14.13
2023-10-18T13:05:24.078Z,14.14
2023-10-18T13:06:25.928Z,14.14
2023-10-18T13:07:27.799Z,14.15
2023-10-18T13:08:29.705Z,14.17
2023-10-18T13:09:31.736Z,14.17
2023-10-18T13:10:33.894Z,14.17
2023-10-18T13:11:35.811Z,14.18
2023-10-18T13:12:37.741Z,14.18
2023-10-18T13:13:39.506Z,14.21
2023-10-18T13:14:41.425Z,14.20
2023-10-18T13:15:43.224Z,14.20
2023-10-18T13:16:45.190Z,14.21
2023-10-18T13:17:47.145Z,14.21
2023-10-18T13:18:49.230Z,14.21
2023-10-18T13:19:51.255Z,14.21
2023-10-18T13:20:53.114Z,14.22
2023-10-18T13:21:54.880Z,14.21
2023-10-18T13:22:56.904Z,14.21
2023-10-18T13:23:59.159Z,14.21
2023-10-18T13:25:01.003Z,14.21
2023-10-18T13:26:02.935Z,14.22
2023-10-18T13:27:04.827Z,14.21
2023-10-18T13:28:06.721Z,14.21
2023-10-18T13:29:08.712Z,14.21
2023-10-18T13:30:10.863Z,14.21
2023-10-18T13:31:12.790Z,14.20
2023-10-18T13:32:14.761Z,14.21
2023-10-18T13:33:16.633Z,14.20
2023-10-18T13:34:18.530Z,14.20
2023-10-18T13:35:22.691Z,14.21
2023-10-18T13:36:24.167Z,14.21
2023-10-18T13:37:26.014Z,14.20
2023-10-18T13:38:27.893Z,14.19
2023-10-18T13:39:30.107Z,14.15
2023-10-18T13:40:32.211Z,14.15
2023-10-18T13:42:59.060Z,14.17
2023-10-18T13:44:00.954Z,14.15
2023-10-18T13:45:04.274Z,14.14
2023-10-18T13:46:06.481Z,14.14
2023-10-18T13:47:12.841Z,14.14
2023-10-18T13:48:11.902Z,14.13
2023-10-18T13:49:13.820Z,14.14
2023-10-18T13:50:17.300Z,14.13
2023-10-18T13:51:19.245Z,14.12
2023-10-18T13:52:21.049Z,14.08
2023-10-18T13:53:22.785Z,14.13
2023-10-18T13:54:24.630Z,14.12